Terminal Aerodrome Forecast
Issued by NWS

Home | Current Version | Previous Version | Text Only | Print | Product List | Glossary On
Versions: 1 2 3 4 5 6 7 8 9 10 11 12 13 14 15 16 17 18 19 20 21 22 23 24 25 26 27 28 29 30
040
FTUS46 KEKA 201959 AAA
TAFCEC
TAF AMD
KCEC 201959Z 2020/2118 19010KT P6SM SCT020 BKN035
     FM202200 17010KT P6SM -RA SCT025 BKN035
     FM210200 16008KT 6SM -RA BR SCT020 BKN035 OVC060
     FM210500 18015G25KT 4SM -RA BR SCT025 OVC035 WS020/20045KT
     FM211000 19030G42KT 6SM -RA BR SCT030 OVC040
     FM211500 20020G30KT 6SM -SHRA SCT025 OVC035=

USA.gov is the U.S. government's official web portal to all federal, state and local government web resources and services.